Startpagina
METAR-TAF:

METAR-TAF

Vliegvelden :

Kbely

Praag, Tsjechië

breedte: 50-07-17N, lengte: 14-32-37E, hoogte: 286 m

Actueel weer

Dit bericht is 23 minuten geleden gemaakt, om 14:00 UTC
Wind 4 kt uit het noordnoordoosten, variërend tussen het noordwesten en het oosten
Temperatuur 27°C
Vochtigheid 37%
Druk 1019 hPa
Zicht 10 km of meer
geen wolken onder 1500 m en geen cumulonimbus

METAR: LKKB 181400Z 02004KT 320V080 CAVOK 27/11 Q1019 NOSIG

Tijdstip: 16:23 (14:23 UTC)

Verwachting

Dit bericht is 3 uur en het 23 minuten geleden gemaakt, om 11:00 UTC
Verwachting geldig van 18 om 12 UTC tot 19 om 12 UTC
Wind 5 kt uit het noorden
Zicht 10 km of meer
geen wolken onder 1500 m en geen cumulonimbus
Tijdelijke
van 18 om 12 UTC tot 18 om 16 UTC
Wind 8 kt uit het noordnoordoosten
Wijzigt naar
van 19 om 08 UTC tot 19 om 10 UTC
Wind 6 kt uit het noordnoordoosten
Verspreide wolken op 4000 ft

TAF: LKKB 181100Z 1812/1912 35005KT CAVOK TEMPO 1812/1816 02008KT BECMG 1908/1910 02006KT SCT040

Waarnemingen en weersverwachtingen van meer dan 4000 vliegvelden (METAR en TAF).

De beschikbare stations zijn de gele en rode punten op de kaart.

Ga met uw muis naar het station om de naam te zien.

Klik dan om waarnemingen en weersverwachtingen te zien.

kaart wijzigen: klik op de groene knoppen met een zwart kruis om in te zoomen, op de groene knop met een streepje om uit te zoomen of op de groene pijlen voor aangrenzende kaarten.


METAR-TAF: